createdAt,value
2018-07-31T00:00:34.334Z,1013.4
2018-07-31T00:05:34.630Z,1013.4
2018-07-31T00:10:34.925Z,1013.4
2018-07-31T00:15:34.705Z,1013.3
2018-07-31T00:20:34.580Z,1013.3
2018-07-31T00:25:34.318Z,1013.4
2018-07-31T00:30:35.038Z,1013.4
2018-07-31T00:35:34.804Z,1013.4
2018-07-31T00:40:34.611Z,1013.4
2018-07-31T00:45:34.402Z,1013.4
2018-07-31T00:50:35.241Z,1013.4
2018-07-31T00:55:34.826Z,1013.3
2018-07-31T01:00:34.603Z,1013.3
2018-07-31T01:05:34.530Z,1013.2
2018-07-31T01:10:35.154Z,1013.2
2018-07-31T01:15:34.953Z,1013.1
2018-07-31T01:20:34.785Z,1013.1
2018-07-31T01:25:34.520Z,1013
2018-07-31T01:30:34.513Z,1013
2018-07-31T01:35:34.437Z,1012.9
2018-07-31T01:40:35.310Z,1012.9
2018-07-31T01:45:35.106Z,1012.9
2018-07-31T01:50:34.858Z,1012.9
2018-07-31T01:55:34.645Z,1012.9
2018-07-31T02:00:34.493Z,1012.9
2018-07-31T02:05:34.740Z,1012.9
2018-07-31T02:10:34.468Z,1012.9
2018-07-31T02:15:35.322Z,1012.7
2018-07-31T02:20:35.155Z,1012.7
2018-07-31T02:25:34.882Z,1012.6
2018-07-31T02:30:34.664Z,1012.6
2018-07-31T02:35:34.751Z,1012.6
2018-07-31T02:40:34.617Z,1012.6
2018-07-31T02:45:34.440Z,1012.5
2018-07-31T02:50:35.294Z,1012.5
2018-07-31T02:55:34.881Z,1012.4
2018-07-31T03:00:34.673Z,1012.4
2018-07-31T03:05:34.665Z,1012.4
2018-07-31T03:10:34.686Z,1012.4
2018-07-31T03:15:34.507Z,1012.4
2018-07-31T03:20:35.271Z,1012.4
2018-07-31T03:25:35.241Z,1012.4
2018-07-31T03:30:35.033Z,1012.4
2018-07-31T03:35:34.981Z,1012.4
2018-07-31T03:40:34.751Z,1012.4
2018-07-31T03:45:34.593Z,1012.3
2018-07-31T03:50:35.433Z,1012.3
2018-07-31T03:55:35.347Z,1012.3
2018-07-31T04:00:35.137Z,1012.3
2018-07-31T04:05:35.265Z,1012.3
2018-07-31T04:10:35.164Z,1012.3
2018-07-31T04:15:35.107Z,1012.3
2018-07-31T04:20:34.905Z,1012.3
2018-07-31T04:25:34.876Z,1012.2
2018-07-31T04:30:34.742Z,1012.2
2018-07-31T04:35:34.795Z,1012.2
2018-07-31T04:40:34.833Z,1012.2
2018-07-31T04:45:34.664Z,1012.1
2018-07-31T04:50:35.532Z,1012.1
2018-07-31T04:55:35.357Z,1012.2
2018-07-31T05:00:35.288Z,1012.2
2018-07-31T05:05:35.622Z,1012.2
2018-07-31T05:10:34.852Z,1012.2
2018-07-31T05:15:34.703Z,1012.2
2018-07-31T05:20:34.874Z,1012.2
2018-07-31T05:25:34.693Z,1012.2
2018-07-31T05:30:34.594Z,1012.2
2018-07-31T05:35:35.614Z,1012.2
2018-07-31T05:40:35.327Z,1012.2
2018-07-31T05:45:35.309Z,1012.3
2018-07-31T05:50:35.212Z,1012.3
2018-07-31T05:55:35.095Z,1012.4
2018-07-31T06:00:34.938Z,1012.4
2018-07-31T06:05:35.379Z,1012.4
2018-07-31T06:10:35.153Z,1012.4
2018-07-31T06:15:34.945Z,1012.4
2018-07-31T06:20:35.462Z,1012.4
2018-07-31T06:25:35.577Z,1012.4
2018-07-31T06:30:35.477Z,1012.4
2018-07-31T06:35:35.158Z,1012.4
2018-07-31T06:40:35.363Z,1012.4
2018-07-31T06:45:35.220Z,1012.4
2018-07-31T06:50:35.124Z,1012.4
2018-07-31T06:55:34.947Z,1012.3
2018-07-31T07:00:34.948Z,1012.3
2018-07-31T07:05:35.077Z,1012.3
2018-07-31T07:10:35.587Z,1012.3
2018-07-31T07:15:35.575Z,1012.3
2018-07-31T07:20:34.821Z,1012.3
2018-07-31T07:25:35.418Z,1012.3
2018-07-31T07:30:35.208Z,1012.3
2018-07-31T07:35:35.147Z,1012.3
2018-07-31T07:40:34.924Z,1012.3
2018-07-31T07:45:34.778Z,1012.3
2018-07-31T07:50:35.539Z,1012.3
2018-07-31T07:55:35.463Z,1012.3
2018-07-31T08:00:35.658Z,1012.3
2018-07-31T08:05:35.017Z,1012.3
2018-07-31T08:10:35.183Z,1012.3
2018-07-31T08:15:35.071Z,1012.3
2018-07-31T08:20:34.973Z,1012.3
2018-07-31T08:25:35.407Z,1012.3
2018-07-31T08:30:35.290Z,1012.3
2018-07-31T08:35:35.206Z,1012.3
2018-07-31T08:40:35.451Z,1012.3
2018-07-31T08:45:35.320Z,1012.3
2018-07-31T08:50:35.120Z,1012.3
2018-07-31T08:55:34.953Z,1012.3
2018-07-31T09:00:34.932Z,1012.3
2018-07-31T09:05:35.956Z,1012.2
2018-07-31T09:10:35.831Z,1012.2
2018-07-31T09:15:35.669Z,1012.1
2018-07-31T09:20:35.510Z,1012.1
2018-07-31T09:25:35.633Z,1012
2018-07-31T09:30:35.580Z,1012
2018-07-31T09:35:35.413Z,1012
2018-07-31T09:40:34.919Z,1012
2018-07-31T09:45:34.820Z,1011.9
2018-07-31T09:50:35.829Z,1011.9
2018-07-31T09:55:35.665Z,1011.9
2018-07-31T10:00:35.661Z,1011.9
2018-07-31T10:05:35.447Z,1011.9
2018-07-31T10:10:35.309Z,1011.9
2018-07-31T10:15:35.004Z,1011.9
2018-07-31T10:20:35.088Z,1011.9
2018-07-31T10:25:35.924Z,1011.9
2018-07-31T10:30:35.762Z,1011.9
2018-07-31T10:35:35.510Z,1011.8
2018-07-31T10:40:35.363Z,1011.8
2018-07-31T10:45:35.221Z,1011.8
2018-07-31T10:50:35.171Z,1011.8
2018-07-31T10:55:34.990Z,1011.8
2018-07-31T11:00:35.774Z,1011.8
2018-07-31T11:05:35.864Z,1011.8
2018-07-31T11:10:35.430Z,1011.8
2018-07-31T11:15:35.356Z,1011.9
2018-07-31T11:20:35.210Z,1011.9
2018-07-31T11:25:35.123Z,1011.8
2018-07-31T11:30:35.162Z,1011.8
2018-07-31T11:35:35.138Z,1011.8
2018-07-31T11:40:35.210Z,1011.8
2018-07-31T11:45:35.202Z,1011.7
2018-07-31T11:50:35.160Z,1011.7
2018-07-31T11:55:35.030Z,1011.6
2018-07-31T12:00:35.831Z,1011.6
2018-07-31T12:05:35.358Z,1011.6
2018-07-31T12:10:36.229Z,1011.6
2018-07-31T12:15:35.469Z,1011.6
2018-07-31T12:20:35.408Z,1011.6
2018-07-31T12:25:35.401Z,1011.6
2018-07-31T12:30:35.226Z,1011.6
2018-07-31T12:35:35.591Z,1011.6
2018-07-31T12:40:35.520Z,1011.6
2018-07-31T12:45:35.851Z,1011.6
2018-07-31T12:50:35.728Z,1011.6
2018-07-31T12:55:35.517Z,1011.6
2018-07-31T13:00:35.957Z,1011.6
2018-07-31T13:05:36.065Z,1011.6
2018-07-31T13:10:37.752Z,1011.6
2018-07-31T13:15:35.546Z,1011.7
2018-07-31T13:20:35.519Z,1011.7
2018-07-31T13:25:35.493Z,1011.6
2018-07-31T13:30:35.370Z,1011.6
2018-07-31T13:35:35.258Z,1011.6
2018-07-31T13:40:35.471Z,1011.6
2018-07-31T13:45:35.312Z,1011.6
2018-07-31T13:50:35.214Z,1011.6
2018-07-31T13:55:36.202Z,1011.7
2018-07-31T14:00:36.138Z,1011.7
2018-07-31T14:05:36.177Z,1011.7
2018-07-31T14:10:35.661Z,1011.7
2018-07-31T14:15:35.928Z,1011.8
2018-07-31T14:20:35.889Z,1011.8
2018-07-31T14:25:35.851Z,1011.8
2018-07-31T14:30:35.842Z,1011.8
2018-07-31T14:35:35.891Z,1011.7
2018-07-31T14:40:35.872Z,1011.7
2018-07-31T14:45:35.763Z,1011.6
2018-07-31T14:50:35.610Z,1011.6
2018-07-31T14:55:35.457Z,1011.6
2018-07-31T15:00:35.363Z,1011.6
2018-07-31T15:05:35.563Z,1011.6
2018-07-31T15:10:35.725Z,1011.6
2018-07-31T15:15:36.107Z,1011.6
2018-07-31T15:20:36.031Z,1011.6
2018-07-31T15:25:36.072Z,1011.6
2018-07-31T15:30:36.002Z,1011.6
2018-07-31T15:35:36.170Z,1011.6
2018-07-31T15:40:36.179Z,1011.6
2018-07-31T15:45:36.085Z,1011.7
2018-07-31T15:50:35.856Z,1011.7
2018-07-31T15:55:35.802Z,1011.7
2018-07-31T16:00:35.689Z,1011.7
2018-07-31T16:05:35.791Z,1011.7
2018-07-31T16:10:35.928Z,1011.7
2018-07-31T16:15:35.572Z,1011.6
2018-07-31T16:20:35.622Z,1011.6
2018-07-31T16:25:35.510Z,1011.7
2018-07-31T16:30:36.388Z,1011.7
2018-07-31T16:35:36.330Z,1011.8
2018-07-31T16:40:36.126Z,1011.8
2018-07-31T16:45:35.975Z,1011.8
2018-07-31T16:50:35.874Z,1011.8
2018-07-31T16:55:35.748Z,1011.7
2018-07-31T17:00:35.502Z,1011.7
2018-07-31T17:05:35.453Z,1011.7
2018-07-31T17:10:35.668Z,1011.7
2018-07-31T17:15:35.873Z,1012
2018-07-31T17:20:35.743Z,1012
2018-07-31T17:25:35.625Z,1012.1
2018-07-31T17:30:35.488Z,1012.1
2018-07-31T17:35:35.497Z,1012.2
2018-07-31T17:40:35.620Z,1012.2
2018-07-31T17:45:35.562Z,1012.3
2018-07-31T17:50:36.405Z,1012.3
2018-07-31T17:55:35.617Z,1012.7
2018-07-31T18:00:36.489Z,1012.7
2018-07-31T18:05:36.488Z,1013
2018-07-31T18:10:36.378Z,1013
2018-07-31T18:15:36.374Z,1013.3
2018-07-31T18:20:36.171Z,1013.3
2018-07-31T18:25:36.130Z,1013.5
2018-07-31T18:30:35.829Z,1013.5
2018-07-31T18:35:35.864Z,1013.8
2018-07-31T18:40:35.681Z,1013.8
2018-07-31T18:45:36.553Z,1014
2018-07-31T18:50:36.426Z,1014
2018-07-31T18:55:36.240Z,1014.2
2018-07-31T19:00:36.037Z,1014.2
2018-07-31T19:05:36.256Z,1014.3
2018-07-31T19:10:36.310Z,1014.3
2018-07-31T19:15:36.209Z,1014.4
2018-07-31T19:20:36.092Z,1014.4
2018-07-31T19:25:35.968Z,1014.5
2018-07-31T19:30:36.494Z,1014.5
2018-07-31T19:35:36.430Z,1014.6
2018-07-31T19:40:36.235Z,1014.6
2018-07-31T19:45:36.097Z,1014.8
2018-07-31T19:50:36.021Z,1014.8
2018-07-31T19:55:35.874Z,1014.9
2018-07-31T20:00:35.835Z,1014.9
2018-07-31T20:05:36.685Z,1015
2018-07-31T20:10:36.183Z,1015
2018-07-31T20:15:36.417Z,1015.4
2018-07-31T20:20:36.509Z,1015.4
2018-07-31T20:25:36.393Z,1015.5
2018-07-31T20:30:36.416Z,1015.5
2018-07-31T20:35:36.242Z,1015.5
2018-07-31T20:40:36.080Z,1015.5
2018-07-31T20:45:35.923Z,1015.7
2018-07-31T20:50:35.958Z,1015.7
2018-07-31T20:55:35.761Z,1015.8
2018-07-31T21:00:36.689Z,1015.8
2018-07-31T21:05:36.674Z,1015.8
2018-07-31T21:10:36.734Z,1015.8
2018-07-31T21:15:36.202Z,1016
2018-07-31T21:20:36.261Z,1016
2018-07-31T21:25:36.126Z,1016
2018-07-31T21:30:36.002Z,1016
2018-07-31T21:35:35.934Z,1016
2018-07-31T21:40:35.863Z,1016
2018-07-31T21:45:35.768Z,1016.3
2018-07-31T21:50:36.730Z,1016.3
2018-07-31T21:55:36.040Z,1016.3
2018-07-31T22:00:35.868Z,1016.3
2018-07-31T22:05:36.323Z,1016.3
2018-07-31T22:10:36.455Z,1016.3
2018-07-31T22:15:36.781Z,1016.5
2018-07-31T22:20:35.860Z,1016.5
2018-07-31T22:25:36.785Z,1016.4
2018-07-31T22:30:36.733Z,1016.4
2018-07-31T22:35:36.699Z,1016.4
2018-07-31T22:40:36.535Z,1016.4
2018-07-31T22:45:36.430Z,1016.6
2018-07-31T22:50:36.292Z,1016.6
2018-07-31T22:55:36.160Z,1016.7
2018-07-31T23:00:36.036Z,1016.7
2018-07-31T23:05:35.965Z,1016.7
2018-07-31T23:10:37.063Z,1016.7
2018-07-31T23:15:36.353Z,1016.6
2018-07-31T23:20:36.215Z,1016.6
2018-07-31T23:25:36.088Z,1016.7
2018-07-31T23:30:35.947Z,1016.7
2018-07-31T23:35:36.848Z,1016.7
2018-07-31T23:40:36.683Z,1016.7
2018-07-31T23:45:36.611Z,1016.7
2018-07-31T23:50:36.476Z,1016.7
2018-07-31T23:55:36.438Z,1016.9
